sensor_id;sensor_type;location;lat;lon;timestamp;P1;P2;P0
47711;PMS7003;57457;51.634;5.886;2023-12-20T00:04:57;8.41;10.36;5.35
47711;PMS7003;57457;51.634;5.886;2023-12-20T00:18:16;9.13;8.29;4.48
47711;PMS7003;57457;51.634;5.886;2023-12-20T00:31:36;9.13;9.38;4.37
47711;PMS7003;57457;51.634;5.886;2023-12-20T00:44:55;7.81;9.06;4.37
47711;PMS7003;57457;51.634;5.886;2023-12-20T00:58:15;15.25;9.93;5.02
47711;PMS7003;57457;51.634;5.886;2023-12-20T01:11:35;13.93;11.13;5.79
47711;PMS7003;57457;51.634;5.886;2023-12-20T01:24:54;6.85;8.62;4.59
47711;PMS7003;57457;51.634;5.886;2023-12-20T01:38:14;7.21;7.09;3.71
47711;PMS7003;57457;51.634;5.886;2023-12-20T01:51:34;7.93;5.79;3.06
47711;PMS7003;57457;51.634;5.886;2023-12-20T02:04:53;3.6;5.57;2.73
47711;PMS7003;57457;51.634;5.886;2023-12-20T02:18:13;6.49;5.35;2.62
47711;PMS7003;57457;51.634;5.886;2023-12-20T02:31:33;5.05;5.13;2.62
47711;PMS7003;57457;51.634;5.886;2023-12-20T02:44:52;4.57;5.35;2.62
47711;PMS7003;57457;51.634;5.886;2023-12-20T02:58:12;9.25;5.57;2.84
47711;PMS7003;57457;51.634;5.886;2023-12-20T03:11:31;4.33;5.13;2.62
47711;PMS7003;57457;51.634;5.886;2023-12-20T03:24:51;6.85;5.79;2.84
47711;PMS7003;57457;51.634;5.886;2023-12-20T03:38:11;7.81;6.44;3.17
47711;PMS7003;57457;51.634;5.886;2023-12-20T03:51:30;6.13;6.88;3.17
47711;PMS7003;57457;51.634;5.886;2023-12-20T04:04:50;9.13;6.55;3.28
47711;PMS7003;57457;51.634;5.886;2023-12-20T04:18:10;9.73;6.88;3.17
47711;PMS7003;57457;51.634;5.886;2023-12-20T04:31:29;9.49;5.9;3.17
47711;PMS7003;57457;51.634;5.886;2023-12-20T04:44:49;6.25;6.77;3.39
47711;PMS7003;57457;51.634;5.886;2023-12-20T04:58:08;11.77;7.09;3.06
47711;PMS7003;57457;51.634;5.886;2023-12-20T05:11:28;7.45;7.09;3.28
47711;PMS7003;57457;51.634;5.886;2023-12-20T05:24:48;11.89;7.09;3.39
47711;PMS7003;57457;51.634;5.886;2023-12-20T05:38:07;8.65;7.31;3.71
47711;PMS7003;57457;51.634;5.886;2023-12-20T05:51:27;15.97;7.64;3.82
47711;PMS7003;57457;51.634;5.886;2023-12-20T06:04:47;7.57;6.55;3.17
47711;PMS7003;57457;51.634;5.886;2023-12-20T06:18:06;8.65;6.33;2.73
47711;PMS7003;57457;51.634;5.886;2023-12-20T06:31:26;11.29;6.22;3.28
47711;PMS7003;57457;51.634;5.886;2023-12-20T06:44:45;5.41;5.57;2.84
47711;PMS7003;57457;51.634;5.886;2023-12-20T06:58:05;12.49;7.2;3.39
47711;PMS7003;57457;51.634;5.886;2023-12-20T07:11:25;8.77;6.77;3.5
47711;PMS7003;57457;51.634;5.886;2023-12-20T07:38:04;8.53;8.4;4.37
47711;PMS7003;57457;51.634;5.886;2023-12-20T07:51:23;7.45;8.4;3.93
47711;PMS7003;57457;51.634;5.886;2023-12-20T08:04:43;11.17;7.97;3.61
47711;PMS7003;57457;51.634;5.886;2023-12-20T08:18:03;7.93;7.64;3.5
47711;PMS7003;57457;51.634;5.886;2023-12-20T08:31:22;7.93;6.22;2.73
47711;PMS7003;57457;51.634;5.886;2023-12-20T08:44:42;6.13;6.33;2.52
47711;PMS7003;57457;51.634;5.886;2023-12-20T08:58:01;12.85;5.9;2.73
47711;PMS7003;57457;51.634;5.886;2023-12-20T09:24:41;6.37;5.79;2.73
47711;PMS7003;57457;51.634;5.886;2023-12-20T09:38:00;6.73;6.0;3.17
47711;PMS7003;57457;51.634;5.886;2023-12-20T09:51:20;6.73;7.42;3.61
47711;PMS7003;57457;51.634;5.886;2023-12-20T10:04:39;8.05;6.66;3.39
47711;PMS7003;57457;51.634;5.886;2023-12-20T10:17:59;8.17;6.88;3.82
47711;PMS7003;57457;51.634;5.886;2023-12-20T10:31:19;7.81;7.64;3.93
47711;PMS7003;57457;51.634;5.886;2023-12-20T10:44:38;9.49;6.55;3.39
47711;PMS7003;57457;51.634;5.886;2023-12-20T10:57:58;8.89;5.79;2.84
47711;PMS7003;57457;51.634;5.886;2023-12-20T11:11:17;10.81;6.55;2.84
47711;PMS7003;57457;51.634;5.886;2023-12-20T11:24:37;15.85;6.22;2.73
47711;PMS7003;57457;51.634;5.886;2023-12-20T11:37:57;9.97;5.79;2.84
47711;PMS7003;57457;51.634;5.886;2023-12-20T11:51:16;10.57;5.9;3.17
47711;PMS7003;57457;51.634;5.886;2023-12-20T12:04:36;6.61;5.57;2.84
47711;PMS7003;57457;51.634;5.886;2023-12-20T12:17:55;8.65;6.44;3.39
47711;PMS7003;57457;51.634;5.886;2023-12-20T12:31:15;11.05;7.53;3.61
47711;PMS7003;57457;51.634;5.886;2023-12-20T12:44:35;17.41;7.97;3.93
47711;PMS7003;57457;51.634;5.886;2023-12-20T12:57:54;12.97;8.62;4.7
47711;PMS7003;57457;51.634;5.886;2023-12-20T13:11:14;9.25;8.84;5.35
47711;PMS7003;57457;51.634;5.886;2023-12-20T13:24:34;15.37;10.47;5.9
47711;PMS7003;57457;51.634;5.886;2023-12-20T13:37:53;15.73;12.65;7.64
47711;PMS7003;57457;51.634;5.886;2023-12-20T13:51:13;15.01;12.76;7.31
47711;PMS7003;57457;51.634;5.886;2023-12-20T14:04:33;17.77;13.09;6.88
47711;PMS7003;57457;51.634;5.886;2023-12-20T14:17:52;12.13;11.56;6.22
47711;PMS7003;57457;51.634;5.886;2023-12-20T14:31:12;16.21;12.33;6.55
47711;PMS7003;57457;51.634;5.886;2023-12-20T14:44:31;16.33;12.11;6.88
47711;PMS7003;57457;51.634;5.886;2023-12-20T14:57:51;11.17;10.69;5.9
47711;PMS7003;57457;51.634;5.886;2023-12-20T15:11:11;16.21;10.36;6.0
47711;PMS7003;57457;51.634;5.886;2023-12-20T15:24:30;7.33;9.17;5.35
47711;PMS7003;57457;51.634;5.886;2023-12-20T15:37:50;12.01;10.58;6.33
47711;PMS7003;57457;51.634;5.886;2023-12-20T15:51:10;11.53;11.24;5.57
47711;PMS7003;57457;51.634;5.886;2023-12-20T16:04:29;13.21;11.78;6.33
47711;PMS7003;57457;51.634;5.886;2023-12-20T16:17:49;12.73;11.78;6.33
47711;PMS7003;57457;51.634;5.886;2023-12-20T16:44:28;18.37;13.31;6.77
47711;PMS7003;57457;51.634;5.886;2023-12-20T16:57:48;14.29;12.0;6.33
47711;PMS7003;57457;51.634;5.886;2023-12-20T17:11:07;14.89;13.2;6.88
47711;PMS7003;57457;51.634;5.886;2023-12-20T17:24:27;18.13;11.24;6.33
47711;PMS7003;57457;51.634;5.886;2023-12-20T17:37:47;16.69;14.4;7.31
47711;PMS7003;57457;51.634;5.886;2023-12-20T17:51:06;17.17;14.51;8.18
47711;PMS7003;57457;51.634;5.886;2023-12-20T18:04:26;17.53;17.45;8.73
47711;PMS7003;57457;51.634;5.886;2023-12-20T18:17:45;23.65;19.74;11.02
47711;PMS7003;57457;51.634;5.886;2023-12-20T18:31:05;24.01;20.94;11.45
47711;PMS7003;57457;51.634;5.886;2023-12-20T18:44:25;27.37;20.28;11.35
47711;PMS7003;57457;51.634;5.886;2023-12-20T18:57:44;23.65;20.61;10.8
47711;PMS7003;57457;51.634;5.886;2023-12-20T19:11:04;23.77;19.74;9.71
47711;PMS7003;57457;51.634;5.886;2023-12-20T19:37:43;18.37;18.32;10.26
47711;PMS7003;57457;51.634;5.886;2023-12-20T19:51:03;19.57;18.65;10.36
47711;PMS7003;57457;51.634;5.886;2023-12-20T20:04:22;19.33;18.21;10.15
47711;PMS7003;57457;51.634;5.886;2023-12-20T20:17:42;20.65;17.89;9.93
47711;PMS7003;57457;51.634;5.886;2023-12-20T20:31:02;19.69;16.36;9.27
47711;PMS7003;57457;51.634;5.886;2023-12-20T20:44:21;14.29;15.92;8.95
47711;PMS7003;57457;51.634;5.886;2023-12-20T20:57:41;18.37;16.69;9.49
47711;PMS7003;57457;51.634;5.886;2023-12-20T21:11:01;18.61;18.65;10.69
47711;PMS7003;57457;51.634;5.886;2023-12-20T21:24:20;19.09;18.98;11.67
47711;PMS7003;57457;51.634;5.886;2023-12-20T21:37:40;25.57;21.16;12.11
47711;PMS7003;57457;51.634;5.886;2023-12-20T21:51:00;23.41;21.05;12.11
47711;PMS7003;57457;51.634;5.886;2023-12-20T22:04:19;23.89;21.59;12.33
47711;PMS7003;57457;51.634;5.886;2023-12-20T22:17:39;24.61;21.16;12.65
47711;PMS7003;57457;51.634;5.886;2023-12-20T22:30:58;23.77;20.07;11.45
47711;PMS7003;57457;51.634;5.886;2023-12-20T22:44:18;18.73;18.98;10.91
47711;PMS7003;57457;51.634;5.886;2023-12-20T22:57:38;16.45;17.45;10.69
47711;PMS7003;57457;51.634;5.886;2023-12-20T23:10:57;19.93;19.08;11.24
47711;PMS7003;57457;51.634;5.886;2023-12-20T23:24:17;19.21;19.52;10.36
47711;PMS7003;57457;51.634;5.886;2023-12-20T23:37:36;20.29;17.99;9.27
47711;PMS7003;57457;51.634;5.886;2023-12-20T23:50:56;17.29;17.01;9.27
